createdAt,value
2019-05-13T00:01:06.752Z,94.70
2019-05-13T00:03:33.846Z,95.30
2019-05-13T00:06:04.233Z,95.20
2019-05-13T00:08:34.037Z,95.60
2019-05-13T00:11:04.377Z,95.70
2019-05-13T00:13:34.057Z,95.40
2019-05-13T00:16:03.854Z,95.20
2019-05-13T00:18:33.999Z,95.30
2019-05-13T00:21:03.911Z,95.40
2019-05-13T00:23:34.029Z,95.50
2019-05-13T00:26:04.715Z,95.40
2019-05-13T00:28:34.527Z,95.80
2019-05-13T00:31:04.993Z,96.00
2019-05-13T00:33:34.415Z,95.80
2019-05-13T00:36:04.134Z,95.80
2019-05-13T00:38:33.796Z,95.60
2019-05-13T00:41:03.737Z,95.90
2019-05-13T00:43:34.352Z,96.50
2019-05-13T00:46:04.077Z,96.70
2019-05-13T00:48:33.736Z,96.40
2019-05-13T00:51:03.696Z,96.20
2019-05-13T00:53:35.389Z,96.50
2019-05-13T00:56:04.948Z,96.40
2019-05-13T00:58:34.270Z,96.10
2019-05-13T01:01:03.815Z,96.40
2019-05-13T01:03:33.931Z,96.40
2019-05-13T01:06:04.297Z,96.60
2019-05-13T01:08:34.932Z,96.30
2019-05-13T01:11:04.511Z,96.70
2019-05-13T01:13:34.342Z,96.90
2019-05-13T01:16:03.971Z,96.90
2019-05-13T01:18:34.005Z,97.40
2019-05-13T01:21:04.462Z,97.30
2019-05-13T01:23:34.505Z,97.30
2019-05-13T01:26:04.196Z,97.00
2019-05-13T01:28:34.477Z,96.80
2019-05-13T01:31:04.376Z,97.00
2019-05-13T01:33:35.118Z,97.10
2019-05-13T01:36:05.309Z,97.50
2019-05-13T01:38:34.847Z,97.30
2019-05-13T01:41:04.531Z,97.30
2019-05-13T01:43:34.077Z,97.20
2019-05-13T01:46:04.457Z,97.50
2019-05-13T01:48:34.077Z,97.30
2019-05-13T01:51:03.908Z,97.40
2019-05-13T01:53:33.768Z,97.40
2019-05-13T01:56:03.836Z,97.50
2019-05-13T01:58:34.112Z,97.40
2019-05-13T02:01:05.248Z,97.50
2019-05-13T02:03:34.749Z,97.20
2019-05-13T02:06:05.121Z,97.20
2019-05-13T02:08:34.468Z,97.30
2019-05-13T02:11:04.577Z,97.30
2019-05-13T02:13:34.507Z,97.70
2019-05-13T02:16:04.487Z,97.60
2019-05-13T02:18:34.380Z,97.30
2019-05-13T02:21:05.261Z,97.40
2019-05-13T02:23:35.110Z,97.20
2019-05-13T02:26:04.711Z,97.40
2019-05-13T02:28:34.172Z,97.40
2019-05-13T02:31:03.506Z,97.70
2019-05-13T02:33:33.962Z,97.70
2019-05-13T02:36:03.330Z,97.40
2019-05-13T02:38:35.304Z,97.50
2019-05-13T02:41:03.865Z,97.50
2019-05-13T02:43:33.756Z,97.70
2019-05-13T02:46:04.113Z,98.10
2019-05-13T02:48:33.981Z,98.00
2019-05-13T02:51:03.940Z,98.10
2019-05-13T02:53:33.873Z,97.90
2019-05-13T02:56:03.711Z,98.00
2019-05-13T02:58:33.861Z,98.30
2019-05-13T03:01:04.524Z,98.20
2019-05-13T03:03:33.832Z,98.40
2019-05-13T03:06:03.430Z,98.30
2019-05-13T03:08:40.896Z,98.40
2019-05-13T03:11:03.862Z,98.20
2019-05-13T03:13:33.366Z,98.20
2019-05-13T03:16:07.528Z,98.30
2019-05-13T03:18:36.849Z,98.20
2019-05-13T03:21:06.161Z,98.20
2019-05-13T03:23:35.493Z,98.20
2019-05-13T03:26:04.862Z,98.20
2019-05-13T03:28:34.189Z,98.40
2019-05-13T03:31:06.570Z,98.30
2019-05-13T03:33:37.061Z,98.20
2019-05-13T03:36:07.763Z,98.60
2019-05-13T03:38:58.151Z,98.40
2019-05-13T03:41:12.311Z,98.70
2019-05-13T03:43:44.125Z,98.70
2019-05-13T03:46:13.621Z,99.00
2019-05-13T03:48:43.290Z,99.20
2019-05-13T03:51:14.138Z,99.20
2019-05-13T03:53:44.230Z,99.50
2019-05-13T03:56:13.719Z,99.50
2019-05-13T03:58:43.831Z,99.20
2019-05-13T04:01:14.525Z,98.90
2019-05-13T04:03:44.418Z,98.80
2019-05-13T04:06:14.423Z,98.70
2019-05-13T04:08:44.214Z,98.90
2019-05-13T04:11:14.313Z,98.80
2019-05-13T04:13:44.023Z,98.60
2019-05-13T04:16:14.475Z,98.70
2019-05-13T04:18:43.842Z,98.60
2019-05-13T04:21:13.665Z,98.70
2019-05-13T04:23:43.291Z,98.90
2019-05-13T04:26:14.908Z,99.00
2019-05-13T04:28:44.272Z,98.90
2019-05-13T04:31:14.706Z,99.00
2019-05-13T04:33:44.380Z,99.10
2019-05-13T04:36:14.049Z,98.90
2019-05-13T04:38:44.526Z,99.10
2019-05-13T04:41:14.303Z,99.20
2019-05-13T04:43:49.134Z,99.10
2019-05-13T04:46:18.642Z,98.70
2019-05-13T04:48:47.968Z,99.20
2019-05-13T04:51:17.438Z,99.50
2019-05-13T04:53:46.971Z,99.30
2019-05-13T04:56:16.314Z,99.30
2019-05-13T04:58:45.784Z,99.20
2019-05-13T05:01:40.155Z,99.40
2019-05-13T05:04:43.877Z,98.90
2019-05-13T05:07:29.183Z,99.00
2019-05-13T05:10:30.568Z,98.70
2019-05-13T05:13:16.100Z,98.80
2019-05-13T05:16:02.666Z,98.80
2019-05-13T05:19:02.747Z,98.80
2019-05-13T05:21:42.022Z,98.80
2019-05-13T05:24:23.423Z,99.00
2019-05-13T05:27:15.427Z,99.00
2019-05-13T05:30:11.379Z,99.00
2019-05-13T05:32:59.007Z,99.00
2019-05-13T05:35:37.011Z,98.70
2019-05-13T05:38:12.132Z,99.00
2019-05-13T05:40:43.696Z,98.20
2019-05-13T05:43:14.443Z,97.90
2019-05-13T05:45:43.068Z,98.40
2019-05-13T05:48:15.530Z,97.40
2019-05-13T05:50:47.636Z,98.10
2019-05-13T05:53:21.847Z,97.40
2019-05-13T05:55:52.332Z,97.40
2019-05-13T05:58:23.583Z,97.00
2019-05-13T06:00:56.100Z,97.20
2019-05-13T06:03:27.400Z,97.00
2019-05-13T06:05:56.818Z,97.10
2019-05-13T06:08:26.214Z,96.20
2019-05-13T06:10:55.513Z,94.50
2019-05-13T06:13:24.976Z,93.30
2019-05-13T06:15:54.360Z,93.60
2019-05-13T06:18:23.721Z,91.20
2019-05-13T06:20:53.162Z,91.20
2019-05-13T06:23:22.578Z,91.30
2019-05-13T06:25:52.832Z,89.80
2019-05-13T06:28:22.574Z,90.70
2019-05-13T06:30:52.207Z,88.60
2019-05-13T06:33:21.788Z,87.50
2019-05-13T06:35:52.090Z,86.20
2019-05-13T06:38:22.782Z,82.40
2019-05-13T06:41:00.499Z,85.60
2019-05-13T06:43:23.203Z,82.40
2019-05-13T06:45:52.522Z,81.80
2019-05-13T06:48:23.128Z,77.30
2019-05-13T06:50:52.694Z,77.90
2019-05-13T06:53:22.005Z,78.40
2019-05-13T06:55:52.282Z,76.30
2019-05-13T06:58:22.402Z,76.80
2019-05-13T07:00:52.027Z,77.90
2019-05-13T07:03:22.137Z,77.20
2019-05-13T07:05:52.459Z,75.50
2019-05-13T07:08:22.373Z,74.00
2019-05-13T07:10:51.754Z,75.50
2019-05-13T07:13:21.836Z,75.00
2019-05-13T07:15:52.601Z,74.50
2019-05-13T07:18:22.073Z,75.20
2019-05-13T07:20:53.024Z,75.20
2019-05-13T07:23:22.731Z,74.40
2019-05-13T07:25:52.647Z,70.00
2019-05-13T07:28:22.193Z,69.50
2019-05-13T07:30:51.761Z,68.60
2019-05-13T07:33:21.519Z,71.00
2019-05-13T07:35:58.143Z,72.30
2019-05-13T07:38:23.691Z,69.40
2019-05-13T07:40:56.211Z,67.10
2019-05-13T07:43:25.532Z,69.10
2019-05-13T07:45:54.860Z,69.00
2019-05-13T07:48:27.733Z,65.70
2019-05-13T07:51:00.352Z,67.90
2019-05-13T07:53:26.200Z,67.70
2019-05-13T07:55:55.531Z,66.40
2019-05-13T07:58:24.910Z,65.10
2019-05-13T08:00:54.220Z,63.30
2019-05-13T08:03:23.544Z,62.40
2019-05-13T08:05:52.872Z,63.50
2019-05-13T08:08:22.197Z,63.80
2019-05-13T08:10:52.093Z,64.30
2019-05-13T08:13:22.447Z,59.60
2019-05-13T08:15:54.375Z,62.10
2019-05-13T08:18:22.487Z,60.50
2019-05-13T08:20:52.458Z,61.90
2019-05-13T08:23:21.992Z,59.30
2019-05-13T08:25:51.494Z,57.90
2019-05-13T08:28:22.561Z,59.60
2019-05-13T08:30:52.022Z,58.10
2019-05-13T08:33:22.622Z,57.90
2019-05-13T08:35:54.045Z,57.50
2019-05-13T08:38:23.343Z,57.60
2019-05-13T08:40:52.727Z,56.30
2019-05-13T08:43:22.661Z,54.00
2019-05-13T08:45:55.677Z,54.30
2019-05-13T08:48:24.253Z,52.80
2019-05-13T08:50:53.586Z,54.40
2019-05-13T08:53:22.917Z,53.40
2019-05-13T08:55:52.240Z,53.60
2019-05-13T08:58:21.799Z,50.70
2019-05-13T09:00:53.324Z,52.90
2019-05-13T09:03:23.776Z,54.70
2019-05-13T09:05:54.335Z,50.70
2019-05-13T09:08:23.531Z,51.90
2019-05-13T09:10:56.556Z,49.90
2019-05-13T09:13:24.285Z,51.80
2019-05-13T09:15:53.914Z,49.80
2019-05-13T09:18:23.399Z,49.40
2019-05-13T09:20:52.711Z,49.40
2019-05-13T09:23:22.459Z,48.40
2019-05-13T09:25:52.316Z,46.80
2019-05-13T09:28:22.322Z,47.10
2019-05-13T09:30:53.067Z,46.80
2019-05-13T09:33:22.146Z,46.80
2019-05-13T09:35:53.669Z,46.90
2019-05-13T09:38:22.452Z,48.10
2019-05-13T09:43:23.994Z,47.30
2019-05-13T09:45:53.393Z,48.30
2019-05-13T09:48:22.951Z,45.80
2019-05-13T09:50:52.415Z,47.40
2019-05-13T09:53:22.518Z,46.40
2019-05-13T09:55:52.495Z,46.80
2019-05-13T09:58:22.589Z,46.40
2019-05-13T10:00:53.423Z,45.80
2019-05-13T10:03:26.920Z,43.90
2019-05-13T10:05:54.041Z,45.00
2019-05-13T10:08:23.451Z,43.30
2019-05-13T10:10:53.120Z,43.10
2019-05-13T10:13:23.277Z,43.60
2019-05-13T10:15:52.814Z,38.80
2019-05-13T10:18:22.423Z,37.40
2019-05-13T10:20:59.818Z,39.50
2019-05-13T10:23:32.911Z,36.70
2019-05-13T10:26:04.518Z,36.20
2019-05-13T10:28:34.507Z,37.30
2019-05-13T10:31:04.652Z,35.40
2019-05-13T10:33:34.071Z,32.90
2019-05-13T10:36:03.946Z,34.60
2019-05-13T10:38:33.608Z,34.10
2019-05-13T10:41:04.246Z,33.00
2019-05-13T10:43:39.082Z,30.00
2019-05-13T10:46:04.901Z,31.90
2019-05-13T10:48:34.287Z,29.90
2019-05-13T10:51:03.584Z,31.30
2019-05-13T10:53:32.904Z,32.70
2019-05-13T10:56:03.305Z,34.90
2019-05-13T10:58:33.024Z,31.90
2019-05-13T11:01:03.828Z,30.60
2019-05-13T11:03:33.392Z,32.00
2019-05-13T11:06:02.714Z,33.30
2019-05-13T11:08:33.002Z,35.70
2019-05-13T11:11:03.932Z,34.80
2019-05-13T11:13:50.423Z,35.70
2019-05-13T11:16:04.786Z,37.30
2019-05-13T11:18:34.153Z,34.90
2019-05-13T11:21:03.559Z,34.00
2019-05-13T11:23:32.861Z,34.50
2019-05-13T11:26:03.143Z,36.00
2019-05-13T11:28:33.171Z,38.30
2019-05-13T11:31:03.531Z,39.10
2019-05-13T11:33:33.241Z,35.20
2019-05-13T11:36:03.621Z,34.20
2019-05-13T11:38:33.210Z,34.90
2019-05-13T11:41:03.034Z,36.40
2019-05-13T11:43:33.871Z,34.40
2019-05-13T11:46:03.623Z,33.10
2019-05-13T11:48:33.001Z,32.50
2019-05-13T11:51:04.085Z,32.40
2019-05-13T11:53:37.618Z,30.60
2019-05-13T11:56:05.843Z,31.40
2019-05-13T11:58:35.232Z,31.10
2019-05-13T12:01:05.738Z,30.70
2019-05-13T12:03:35.090Z,31.10
2019-05-13T12:06:05.542Z,29.60
2019-05-13T12:08:34.972Z,29.80
2019-05-13T12:11:06.254Z,31.60
2019-05-13T12:13:36.371Z,30.50
2019-05-13T12:16:06.893Z,29.00
2019-05-13T12:18:43.209Z,28.50
2019-05-13T12:21:07.226Z,29.30
2019-05-13T12:23:36.555Z,31.60
2019-05-13T12:26:05.855Z,30.20
2019-05-13T12:28:35.418Z,29.60
2019-05-13T12:31:04.842Z,32.10
2019-05-13T12:33:34.171Z,32.50
2019-05-13T12:36:03.539Z,32.30
2019-05-13T12:38:33.556Z,32.40
2019-05-13T12:41:05.283Z,31.30
2019-05-13T12:43:33.321Z,29.90
2019-05-13T12:46:02.760Z,30.90
2019-05-13T12:48:32.263Z,32.60
2019-05-13T12:51:03.063Z,29.20
2019-05-13T12:53:32.644Z,30.20
2019-05-13T12:56:03.143Z,29.00
2019-05-13T13:00:43.393Z,29.50
2019-05-13T13:03:13.391Z,32.80
2019-05-13T13:05:43.460Z,32.20
2019-05-13T13:08:23.928Z,33.20
2019-05-13T13:10:44.356Z,33.40
2019-05-13T13:13:13.730Z,35.30
2019-05-13T13:15:48.951Z,35.10
2019-05-13T13:18:15.248Z,33.70
2019-05-13T13:20:44.799Z,32.70
2019-05-13T13:23:14.134Z,29.00
2019-05-13T13:25:52.407Z,29.50
2019-05-13T13:28:15.647Z,28.90
2019-05-13T13:30:45.092Z,27.70
2019-05-13T13:33:15.345Z,29.20
2019-05-13T13:35:54.712Z,30.60
2019-05-13T13:38:15.911Z,29.60
2019-05-13T13:40:45.994Z,29.90
2019-05-13T13:43:15.602Z,31.30
2019-05-13T13:46:06.549Z,29.80
2019-05-13T13:48:16.208Z,28.60
2019-05-13T13:50:45.533Z,29.50
2019-05-13T13:53:15.928Z,26.50
2019-05-13T13:55:45.579Z,26.80
2019-05-13T13:58:14.951Z,27.70
2019-05-13T14:00:56.494Z,28.80
2019-05-13T14:03:16.439Z,29.70
2019-05-13T14:05:45.776Z,30.00
2019-05-13T14:06:32.730Z,46.90
2019-05-13T14:08:15.076Z,32.70
2019-05-13T14:10:44.434Z,31.30
2019-05-13T14:13:13.815Z,29.70
2019-05-13T14:15:43.791Z,28.30
2019-05-13T14:18:13.120Z,28.90
2019-05-13T14:20:42.988Z,27.70
2019-05-13T14:23:12.641Z,27.30
2019-05-13T14:25:42.249Z,28.70
2019-05-13T14:28:11.621Z,27.80
2019-05-13T14:30:42.236Z,30.10
2019-05-13T14:33:12.703Z,31.00
2019-05-13T14:35:42.002Z,29.50
2019-05-13T14:38:11.860Z,29.60
2019-05-13T14:40:41.454Z,26.50
2019-05-13T14:43:12.086Z,28.40
2019-05-13T14:45:42.804Z,28.50
2019-05-13T14:48:12.733Z,29.60
2019-05-13T14:50:42.300Z,29.10
2019-05-13T14:53:11.608Z,29.80
2019-05-13T14:55:41.910Z,28.80
2019-05-13T14:58:12.710Z,30.90
2019-05-13T15:00:42.354Z,28.90
2019-05-13T15:03:13.140Z,28.30
2019-05-13T15:05:43.101Z,27.30
2019-05-13T15:08:12.432Z,27.70
2019-05-13T15:10:42.091Z,28.60
2019-05-13T15:13:11.423Z,27.30
2019-05-13T15:15:42.146Z,26.30
2019-05-13T15:18:11.635Z,26.20
2019-05-13T15:20:41.680Z,26.40
2019-05-13T15:23:11.944Z,25.40
2019-05-13T15:25:42.582Z,24.70
2019-05-13T15:28:12.161Z,26.10
2019-05-13T15:30:42.070Z,28.70
2019-05-13T15:33:10.868Z,28.10
2019-05-13T15:35:41.943Z,30.80
2019-05-13T15:38:12.517Z,32.60
2019-05-13T15:40:42.167Z,35.10
2019-05-13T15:43:11.756Z,31.10
2019-05-13T15:45:42.444Z,28.80
2019-05-13T15:48:11.998Z,28.30
2019-05-13T15:50:42.195Z,27.20
2019-05-13T15:53:14.486Z,27.80
2019-05-13T15:55:42.846Z,30.00
2019-05-13T15:58:12.289Z,31.60
2019-05-13T16:00:42.021Z,31.90
2019-05-13T16:03:12.221Z,34.00
2019-05-13T16:05:42.347Z,34.70
2019-05-13T16:08:12.298Z,33.60
2019-05-13T16:10:42.150Z,33.60
2019-05-13T16:13:11.931Z,32.80
2019-05-13T16:15:41.726Z,31.30
2019-05-13T16:18:11.783Z,30.80
2019-05-13T16:20:44.457Z,31.00
2019-05-13T16:23:12.594Z,30.70
2019-05-13T16:25:41.992Z,30.90
2019-05-13T16:28:11.293Z,30.50
2019-05-13T16:30:42.010Z,30.90
2019-05-13T16:33:12.295Z,31.50
2019-05-13T16:35:42.435Z,30.20
2019-05-13T16:38:11.978Z,30.20
2019-05-13T16:40:42.342Z,31.30
2019-05-13T16:43:12.856Z,32.50
2019-05-13T16:45:42.277Z,34.60
2019-05-13T16:48:12.473Z,34.60
2019-05-13T16:50:42.046Z,35.10
2019-05-13T16:53:11.360Z,36.30
2019-05-13T16:55:41.638Z,35.80
2019-05-13T16:58:12.593Z,36.80
2019-05-13T17:00:42.546Z,36.20
2019-05-13T17:03:12.024Z,35.60
2019-05-13T17:05:42.038Z,36.60
2019-05-13T17:08:11.514Z,36.60
2019-05-13T17:10:42.020Z,34.20
2019-05-13T17:13:11.754Z,36.20
2019-05-13T17:15:41.760Z,34.20
2019-05-13T17:18:14.739Z,35.40
2019-05-13T17:20:42.372Z,33.40
2019-05-13T17:23:12.423Z,33.20
2019-05-13T17:25:42.435Z,35.20
2019-05-13T17:28:13.328Z,33.30
2019-05-13T17:30:43.329Z,33.60
2019-05-13T17:33:12.662Z,34.50
2019-05-13T17:35:41.979Z,34.50
2019-05-13T17:38:11.587Z,35.60
2019-05-13T17:40:42.026Z,37.00
2019-05-13T17:43:12.057Z,37.90
2019-05-13T17:45:41.809Z,37.80
2019-05-13T17:48:25.358Z,38.20
2019-05-13T17:50:42.350Z,39.60
2019-05-13T17:53:11.676Z,39.60
2019-05-13T17:55:41.010Z,39.10
2019-05-13T17:58:11.612Z,40.30
2019-05-13T18:00:42.074Z,40.00
2019-05-13T18:03:11.554Z,39.30
2019-05-13T18:05:42.070Z,39.80
2019-05-13T18:08:11.662Z,40.40
2019-05-13T18:10:42.008Z,40.90
2019-05-13T18:13:12.664Z,41.80
2019-05-13T18:15:41.731Z,41.60
2019-05-13T18:18:11.997Z,43.40
2019-05-13T18:20:41.740Z,43.50
2019-05-13T18:23:12.157Z,44.00
2019-05-13T18:25:42.199Z,45.00
2019-05-13T18:28:27.229Z,44.50
2019-05-13T18:30:42.686Z,45.40
2019-05-13T18:33:12.110Z,44.60
2019-05-13T18:35:41.839Z,45.70
2019-05-13T18:38:11.932Z,47.20
2019-05-13T18:40:41.952Z,46.40
2019-05-13T18:43:11.706Z,47.20
2019-05-13T18:45:41.918Z,45.60
2019-05-13T18:48:12.272Z,48.20
2019-05-13T18:50:42.015Z,49.30
2019-05-13T18:53:12.563Z,48.00
2019-05-13T18:55:42.964Z,49.60
2019-05-13T18:58:12.340Z,48.90
2019-05-13T19:00:41.789Z,49.90
2019-05-13T19:03:12.451Z,50.60
2019-05-13T19:05:42.295Z,50.40
2019-05-13T19:08:12.423Z,51.30
2019-05-13T19:10:41.964Z,53.00
2019-05-13T19:13:12.474Z,52.90
2019-05-13T19:15:43.083Z,54.80
2019-05-13T19:18:12.528Z,55.30
2019-05-13T19:20:42.031Z,54.70
2019-05-13T19:23:11.900Z,57.00
2019-05-13T19:25:42.705Z,56.90
2019-05-13T19:28:12.499Z,57.70
2019-05-13T19:30:41.808Z,57.40
2019-05-13T19:33:12.111Z,58.80
2019-05-13T19:35:42.799Z,59.50
2019-05-13T19:38:12.280Z,59.90
2019-05-13T19:40:42.805Z,59.40
2019-05-13T19:43:12.210Z,59.50
2019-05-13T19:45:42.293Z,58.70
2019-05-13T19:48:12.103Z,59.50
2019-05-13T19:50:41.832Z,61.30
2019-05-13T19:53:12.992Z,59.80
2019-05-13T19:55:42.472Z,61.80
2019-05-13T19:58:12.536Z,61.90
2019-05-13T20:00:42.570Z,63.70
2019-05-13T20:03:12.824Z,64.60
2019-05-13T20:05:42.190Z,65.80
2019-05-13T20:08:11.840Z,66.70
2019-05-13T20:10:42.296Z,67.50
2019-05-13T20:13:11.737Z,69.80
2019-05-13T20:15:41.373Z,69.80
2019-05-13T20:18:12.137Z,70.00
2019-05-13T20:20:41.790Z,70.20
2019-05-13T20:23:12.030Z,70.00
2019-05-13T20:25:42.540Z,71.40
2019-05-13T20:28:11.876Z,70.90
2019-05-13T20:30:42.156Z,72.90
2019-05-13T20:33:13.377Z,72.90
2019-05-13T20:35:42.660Z,72.90
2019-05-13T20:38:12.047Z,73.80
2019-05-13T20:40:41.601Z,73.90
2019-05-13T20:43:11.874Z,73.80
2019-05-13T20:45:42.087Z,72.70
2019-05-13T20:48:12.083Z,74.10
2019-05-13T20:50:41.504Z,74.90
2019-05-13T20:53:11.552Z,73.70
2019-05-13T20:55:41.790Z,74.30
2019-05-13T20:58:12.803Z,72.70
2019-05-13T21:00:43.549Z,70.90
2019-05-13T21:03:12.873Z,72.10
2019-05-13T21:05:42.248Z,72.60
2019-05-13T21:08:11.572Z,70.00
2019-05-13T21:10:42.157Z,70.30
2019-05-13T21:13:12.268Z,70.10
2019-05-13T21:15:42.455Z,71.50
2019-05-13T21:18:12.045Z,71.70
2019-05-13T21:20:41.356Z,73.80
2019-05-13T21:23:11.781Z,73.60
2019-05-13T21:25:41.790Z,74.20
2019-05-13T21:28:11.502Z,74.50
2019-05-13T21:30:42.059Z,74.40
2019-05-13T21:33:12.771Z,75.50
2019-05-13T21:35:42.125Z,76.10
2019-05-13T21:38:12.633Z,76.30
2019-05-13T21:40:41.965Z,76.60
2019-05-13T21:43:11.343Z,76.40
2019-05-13T21:45:41.496Z,77.80
2019-05-13T21:48:11.141Z,78.60
2019-05-13T21:50:41.461Z,78.60
2019-05-13T21:53:12.416Z,80.10
2019-05-13T21:55:41.981Z,80.30
2019-05-13T21:58:14.061Z,78.00
2019-05-13T22:00:46.920Z,78.50
2019-05-13T22:03:16.547Z,79.30
2019-05-13T22:05:46.042Z,79.60
2019-05-13T22:08:15.352Z,80.30
2019-05-13T22:10:45.414Z,81.80
2019-05-13T22:13:14.713Z,82.90
2019-05-13T22:15:44.103Z,82.50
2019-05-13T22:18:13.492Z,82.60
2019-05-13T22:20:50.019Z,83.60
2019-05-13T22:23:14.961Z,83.80
2019-05-13T22:25:44.266Z,84.60
2019-05-13T22:28:13.605Z,85.80
2019-05-13T22:30:42.905Z,87.10
2019-05-13T22:33:12.408Z,88.40
2019-05-13T22:35:41.857Z,87.80
2019-05-13T22:38:12.318Z,87.70
2019-05-13T22:40:42.928Z,87.80
2019-05-13T22:43:12.378Z,87.20
2019-05-13T22:45:42.116Z,85.60
2019-05-13T22:48:15.061Z,85.20
2019-05-13T22:50:43.885Z,85.40
2019-05-13T22:53:13.214Z,87.30
2019-05-13T22:55:42.514Z,84.90
2019-05-13T22:58:11.911Z,86.40
2019-05-13T23:00:42.357Z,88.50
2019-05-13T23:03:13.454Z,88.30
2019-05-13T23:05:42.800Z,88.10
2019-05-13T23:08:12.089Z,87.70
2019-05-13T23:10:42.124Z,88.20
2019-05-13T23:13:11.585Z,88.30
2019-05-13T23:15:40.936Z,88.30
2019-05-13T23:18:11.758Z,87.20
2019-05-13T23:20:41.309Z,88.00
2019-05-13T23:23:11.816Z,87.70
2019-05-13T23:25:42.991Z,87.50
2019-05-13T23:28:11.530Z,86.20
2019-05-13T23:30:41.759Z,86.40
2019-05-13T23:33:11.726Z,86.50
2019-05-13T23:35:41.820Z,86.60
2019-05-13T23:38:11.432Z,85.60
2019-05-13T23:40:42.139Z,86.30
2019-05-13T23:43:11.509Z,86.50
2019-05-13T23:45:41.672Z,87.20
2019-05-13T23:48:11.213Z,88.20
2019-05-13T23:50:41.493Z,89.60
2019-05-13T23:53:11.014Z,88.70
2019-05-13T23:55:41.393Z,87.60
2019-05-13T23:58:12.188Z,89.90
